createdAt,value
2022-11-01T00:00:18.519Z,10.3
2022-11-01T00:02:20.356Z,10.26
2022-11-01T00:04:21.364Z,10.15
2022-11-01T00:06:23.182Z,10.01
2022-11-01T00:08:24.749Z,9.96
2022-11-01T00:10:25.952Z,9.96
2022-11-01T00:12:27.323Z,9.97
2022-11-01T00:14:28.629Z,10.02
2022-11-01T00:16:29.945Z,10.15
2022-11-01T00:18:31.483Z,10.13
2022-11-01T00:20:32.910Z,10.19
2022-11-01T00:22:34.606Z,10.19
2022-11-01T00:24:35.676Z,10.24
2022-11-01T00:26:36.804Z,10.21
2022-11-01T00:28:37.649Z,10.24
2022-11-01T00:30:39.336Z,10.25
2022-11-01T00:32:40.363Z,10.23
2022-11-01T00:34:41.250Z,10.19
2022-11-01T00:36:42.737Z,10.2
2022-11-01T00:38:43.800Z,10.18
2022-11-01T00:40:44.917Z,10.13
2022-11-01T00:42:46.248Z,10.15
2022-11-01T00:46:49.107Z,10.03
2022-11-01T00:48:51.021Z,10.03
2022-11-01T00:50:51.979Z,9.99
2022-11-01T00:52:53.739Z,9.98
2022-11-01T00:54:55.097Z,9.94
2022-11-01T00:56:56.948Z,9.91
2022-11-01T00:58:58.581Z,9.85
2022-11-01T01:01:00.448Z,9.81
2022-11-01T01:03:02.335Z,9.78
2022-11-01T01:05:03.549Z,9.77
2022-11-01T01:07:04.783Z,9.73
2022-11-01T01:09:05.855Z,9.66
2022-11-01T01:11:07.514Z,9.65
2022-11-01T01:13:09.173Z,9.56
2022-11-01T01:15:10.279Z,9.47
2022-11-01T01:17:12.067Z,9.4
2022-11-01T01:19:13.600Z,9.42
2022-11-01T01:21:14.863Z,9.41
2022-11-01T01:23:16.057Z,9.38
2022-11-01T01:25:17.610Z,9.33
2022-11-01T01:29:20.443Z,9.36
2022-11-01T01:31:21.946Z,9.43
2022-11-01T01:33:22.872Z,9.4
2022-11-01T01:35:24.075Z,9.38
2022-11-01T01:37:25.299Z,9.46
2022-11-01T01:39:26.533Z,9.45
2022-11-01T01:41:27.703Z,9.48
2022-11-01T01:43:28.816Z,9.43
2022-11-01T01:45:30.572Z,9.42
2022-11-01T01:47:31.880Z,9.35
2022-11-01T01:49:34.838Z,9.32
2022-11-01T01:51:34.826Z,9.31
2022-11-01T01:53:35.987Z,9.3
2022-11-01T01:55:37.289Z,9.27
2022-11-01T01:57:39.021Z,9.29
2022-11-01T01:59:40.872Z,9.28
2022-11-01T02:01:42.415Z,9.33
2022-11-01T02:03:43.915Z,9.28
2022-11-01T02:05:45.418Z,9.26
2022-11-01T02:07:46.492Z,9.17
2022-11-01T02:09:48.383Z,9.15
2022-11-01T02:11:49.966Z,9.21
2022-11-01T02:14:00.692Z,9.04
2022-11-01T02:15:52.786Z,9.01
2022-11-01T02:17:54.568Z,8.94
2022-11-01T02:19:56.416Z,9.03
2022-11-01T02:21:58.234Z,9.02
2022-11-01T02:24:00.101Z,9
2022-11-01T02:26:01.659Z,9
2022-11-01T02:28:03.304Z,9.05
2022-11-01T02:30:05.101Z,9.03
2022-11-01T02:32:06.064Z,8.96
2022-11-01T02:34:07.758Z,8.97
2022-11-01T02:36:09.533Z,8.93
2022-11-01T02:38:10.648Z,9.06
2022-11-01T02:40:11.668Z,9.14
2022-11-01T02:42:13.502Z,9.23
2022-11-01T02:44:15.063Z,9.2
2022-11-01T02:46:16.327Z,9.21
2022-11-01T02:48:17.560Z,9.18
2022-11-01T02:50:19.070Z,9.16
2022-11-01T02:52:20.957Z,9.19
2022-11-01T02:54:22.312Z,9.15
2022-11-01T02:56:24.349Z,9.11
2022-11-01T02:58:25.691Z,9.02
2022-11-01T03:00:27.605Z,9.03
2022-11-01T03:02:29.092Z,9.05
2022-11-01T03:04:30.912Z,9.11
2022-11-01T03:06:31.966Z,9.32
2022-11-01T03:08:33.442Z,9.48
2022-11-01T03:10:34.695Z,9.57
2022-11-01T03:12:36.337Z,9.52
2022-11-01T03:14:38.214Z,9.41
2022-11-01T03:16:39.741Z,9.26
2022-11-01T03:18:41.293Z,9.08
2022-11-01T03:20:42.596Z,9.05
2022-11-01T03:21:26.387Z,9.06
2022-11-01T03:23:27.801Z,9.07
2022-11-01T03:25:29.258Z,9.07
2022-11-01T03:27:30.945Z,9.07
2022-11-01T03:29:32.179Z,9.18
2022-11-01T03:31:33.606Z,9.18
2022-11-01T03:33:35.287Z,9.19
2022-11-01T03:35:36.641Z,9.19
2022-11-01T03:37:37.670Z,9.17
2022-11-01T03:39:39.189Z,9.15
2022-11-01T03:41:40.269Z,9.2
2022-11-01T03:43:42.124Z,9.25
2022-11-01T03:47:44.896Z,9.33
2022-11-01T03:49:46.833Z,9.36
2022-11-01T03:51:48.036Z,9.39
2022-11-01T03:53:49.193Z,9.45
2022-11-01T03:55:50.598Z,9.54
2022-11-01T03:57:51.966Z,9.65
2022-11-01T03:59:53.226Z,9.73
2022-11-01T04:01:54.521Z,9.79
2022-11-01T04:03:55.482Z,9.77
2022-11-01T04:05:56.492Z,9.99
2022-11-01T04:07:58.393Z,9.85
2022-11-01T04:10:00.091Z,9.78
2022-11-01T04:12:01.010Z,9.76
2022-11-01T04:14:02.294Z,9.72
2022-11-01T04:16:03.259Z,9.48
2022-11-01T04:18:04.510Z,9.4
2022-11-01T04:20:06.149Z,9.35
2022-11-01T04:22:07.753Z,9.51
2022-11-01T04:24:09.164Z,9.59
2022-11-01T04:26:10.478Z,9.81
2022-11-01T04:28:12.005Z,9.89
2022-11-01T04:30:13.234Z,9.92
2022-11-01T04:32:14.431Z,10.26
2022-11-01T04:34:15.885Z,10.5
2022-11-01T04:36:17.294Z,10.4
2022-11-01T04:38:18.699Z,9.96
2022-11-01T04:40:19.808Z,9.85
2022-11-01T04:42:21.184Z,9.84
2022-11-01T04:44:22.497Z,9.9
2022-11-01T04:46:23.535Z,9.92
2022-11-01T04:48:24.927Z,9.99
2022-11-01T04:50:26.274Z,10
2022-11-01T04:52:27.790Z,9.89
2022-11-01T04:54:29.080Z,9.88
2022-11-01T04:56:30.044Z,9.84
2022-11-01T04:58:31.298Z,9.81
2022-11-01T05:00:33.376Z,9.84
2022-11-01T05:02:34.320Z,9.79
2022-11-01T05:04:35.692Z,9.78
2022-11-01T05:06:37.008Z,9.68
2022-11-01T05:08:38.210Z,9.77
2022-11-01T05:10:39.115Z,10.08
2022-11-01T05:12:40.624Z,10.23
2022-11-01T05:14:41.996Z,10.03
2022-11-01T05:16:43.544Z,9.85
2022-11-01T05:18:45.214Z,9.9
2022-11-01T05:20:46.411Z,9.96
2022-11-01T05:22:47.928Z,10.02
2022-11-01T05:24:49.493Z,10.13
2022-11-01T05:26:50.575Z,10.4
2022-11-01T05:28:51.900Z,10.47
2022-11-01T05:30:53.242Z,10.68
2022-11-01T05:32:54.656Z,10.51
2022-11-01T05:34:55.993Z,10.25
2022-11-01T05:36:57.380Z,10.25
2022-11-01T05:38:58.774Z,10.48
2022-11-01T05:41:00.316Z,10.72
2022-11-01T05:43:01.789Z,10.28
2022-11-01T05:45:02.850Z,10.13
2022-11-01T05:47:04.509Z,10.12
2022-11-01T05:49:05.924Z,10.25
2022-11-01T05:51:07.313Z,10.24
2022-11-01T05:53:09.086Z,10.4
2022-11-01T05:55:10.895Z,10.49
2022-11-01T05:57:12.455Z,10.54
2022-11-01T05:59:13.537Z,10.54
2022-11-01T06:01:14.726Z,10.58
2022-11-01T06:03:15.763Z,10.56
2022-11-01T06:05:17.633Z,10.79
2022-11-01T06:07:19.531Z,10.79
2022-11-01T06:09:21.013Z,10.83
2022-11-01T06:11:22.327Z,10.84
2022-11-01T06:13:23.239Z,10.82
2022-11-01T06:15:24.181Z,10.87
2022-11-01T06:17:25.935Z,10.87
2022-11-01T06:19:27.672Z,11.07
2022-11-01T06:21:30.386Z,10.87
2022-11-01T06:23:30.668Z,10.58
2022-11-01T06:25:32.512Z,10.58
2022-11-01T06:27:33.644Z,10.63
2022-11-01T06:29:34.600Z,10.7
2022-11-01T06:31:35.988Z,10.75
2022-11-01T06:33:36.916Z,10.86
2022-11-01T06:35:37.954Z,11.09
2022-11-01T06:37:39.399Z,11.06
2022-11-01T06:39:40.421Z,11
2022-11-01T06:41:41.889Z,11.18
2022-11-01T06:43:42.956Z,10.83
2022-11-01T06:45:43.965Z,10.94
2022-11-01T06:47:45.363Z,11.43
2022-11-01T06:55:51.425Z,11.74
2022-11-01T06:57:52.690Z,11.8
2022-11-01T06:59:54.185Z,11.85
2022-11-01T07:01:56.135Z,11.85
2022-11-01T07:03:57.197Z,11.96
2022-11-01T07:05:58.835Z,11.99
2022-11-01T07:08:00.088Z,12.09
2022-11-01T07:10:01.367Z,12.25
2022-11-01T07:12:02.425Z,12.26
2022-11-01T07:14:04.022Z,12.35
2022-11-01T07:16:05.514Z,12.45
2022-11-01T07:18:07.397Z,12.58
2022-11-01T07:20:08.681Z,12.74
2022-11-01T07:22:09.589Z,12.76
2022-11-01T07:24:10.981Z,12.91
2022-11-01T07:26:12.874Z,13.03
2022-11-01T07:28:14.297Z,12.97
2022-11-01T07:30:15.456Z,13.13
2022-11-01T07:32:17.110Z,13.27
2022-11-01T07:34:18.009Z,13.41
2022-11-01T07:36:19.281Z,13.57
2022-11-01T07:38:20.404Z,13.56
2022-11-01T07:40:22.013Z,13.56
2022-11-01T07:42:23.631Z,13.72
2022-11-01T07:44:24.479Z,13.8
2022-11-01T07:46:25.641Z,13.78
2022-11-01T07:48:27.454Z,13.74
2022-11-01T07:50:28.574Z,13.81
2022-11-01T07:52:30.262Z,13.93
2022-11-01T07:54:31.361Z,13.89
2022-11-01T07:56:32.517Z,13.96
2022-11-01T07:58:34.048Z,13.93
2022-11-01T08:02:36.749Z,14.05
2022-11-01T08:04:37.775Z,14.05
2022-11-01T08:06:39.665Z,14.09
2022-11-01T08:08:41.401Z,14.09
2022-11-01T08:10:43.063Z,14.14
2022-11-01T08:12:44.127Z,14.16
2022-11-01T08:14:45.535Z,14.17
2022-11-01T08:16:47.371Z,14.22
2022-11-01T08:18:49.028Z,14.31
2022-11-01T08:20:49.976Z,14.36
2022-11-01T08:22:51.022Z,14.37
2022-11-01T08:24:52.329Z,14.39
2022-11-01T08:26:53.908Z,14.47
2022-11-01T08:28:55.388Z,14.5
2022-11-01T08:30:57.230Z,14.56
2022-11-01T08:34:59.229Z,14.66
2022-11-01T08:37:00.213Z,14.71
2022-11-01T08:39:02.059Z,14.78
2022-11-01T08:41:03.526Z,14.81
2022-11-01T08:43:05.263Z,14.83
2022-11-01T08:45:06.837Z,14.92
2022-11-01T08:47:08.628Z,14.93
2022-11-01T08:49:10.212Z,14.89
2022-11-01T08:51:11.203Z,14.94
2022-11-01T08:53:12.431Z,15.02
2022-11-01T08:55:14.112Z,14.95
2022-11-01T08:57:15.077Z,15.04
2022-11-01T08:59:16.728Z,15.06
2022-11-01T09:01:17.766Z,15.01
2022-11-01T09:03:18.951Z,15.08
2022-11-01T09:05:20.118Z,15.15
2022-11-01T09:07:21.844Z,15.19
2022-11-01T09:09:23.269Z,15.26
2022-11-01T09:11:24.534Z,15.33
2022-11-01T09:13:26.133Z,15.32
2022-11-01T09:15:27.978Z,15.32
2022-11-01T09:17:28.960Z,15.44
2022-11-01T09:19:30.965Z,15.32
2022-11-01T09:21:32.175Z,15.42
2022-11-01T09:23:33.446Z,15.44
2022-11-01T09:25:34.758Z,15.62
2022-11-01T09:27:35.858Z,15.65
2022-11-01T09:29:37.030Z,15.72
2022-11-01T09:31:38.312Z,15.78
2022-11-01T09:33:39.751Z,15.75
2022-11-01T09:35:43.465Z,15.83
2022-11-01T09:37:42.979Z,15.81
2022-11-01T09:39:43.943Z,15.83
2022-11-01T09:41:45.669Z,15.85
2022-11-01T09:43:46.970Z,15.77
2022-11-01T09:45:48.261Z,15.81
2022-11-01T09:47:49.556Z,15.77
2022-11-01T09:49:51.262Z,15.78
2022-11-01T09:51:52.980Z,15.81
2022-11-01T09:53:53.850Z,15.85
2022-11-01T09:55:54.724Z,15.85
2022-11-01T09:57:55.976Z,15.97
2022-11-01T09:59:57.224Z,16.09
2022-11-01T10:01:58.983Z,16.11
2022-11-01T10:04:00.566Z,16.11
2022-11-01T10:06:01.502Z,16.15
2022-11-01T10:08:46.735Z,16.38
2022-11-01T10:10:47.579Z,16.46
2022-11-01T10:12:49.183Z,16.53
2022-11-01T10:14:50.137Z,16.71
2022-11-01T10:16:50.948Z,16.93
2022-11-01T10:18:52.519Z,17.04
2022-11-01T10:20:54.160Z,16.96
2022-11-01T10:22:55.705Z,16.93
2022-11-01T10:24:57.297Z,17.08
2022-11-01T10:26:58.570Z,17.1
2022-11-01T10:28:59.594Z,16.93
2022-11-01T10:31:00.405Z,16.93
2022-11-01T10:33:02.464Z,16.93
2022-11-01T10:35:03.735Z,17.16
2022-11-01T10:37:05.453Z,17.12
2022-11-01T10:41:07.734Z,17.17
2022-11-01T10:43:09.201Z,16.91
2022-11-01T10:45:10.121Z,16.94
2022-11-01T10:47:11.816Z,16.83
2022-11-01T10:49:13.086Z,16.84
2022-11-01T10:51:14.302Z,16.8
2022-11-01T10:55:16.663Z,16.79
2022-11-01T10:57:18.397Z,16.75
2022-11-01T10:59:19.875Z,16.67
2022-11-01T11:01:21.093Z,16.76
2022-11-01T11:03:22.006Z,16.8
2022-11-01T11:05:23.382Z,16.83
2022-11-01T11:07:24.412Z,16.75
2022-11-01T11:09:25.913Z,16.74
2022-11-01T11:11:27.194Z,16.86
2022-11-01T11:13:28.529Z,16.83
2022-11-01T11:15:33.091Z,16.93
2022-11-01T11:17:31.115Z,17.09
2022-11-01T11:19:31.940Z,16.95
2022-11-01T11:21:33.632Z,17.13
2022-11-01T11:23:35.177Z,16.99
2022-11-01T11:25:36.458Z,16.98
2022-11-01T11:27:37.665Z,16.88
2022-11-01T11:29:39.023Z,16.86
2022-11-01T11:31:40.762Z,16.77
2022-11-01T11:33:42.250Z,16.79
2022-11-01T11:35:43.148Z,16.86
2022-11-01T11:37:44.150Z,16.85
2022-11-01T11:39:45.041Z,16.86
2022-11-01T11:41:46.671Z,16.86
2022-11-01T11:43:47.959Z,16.89
2022-11-01T11:45:49.344Z,16.95
2022-11-01T11:47:50.334Z,16.92
2022-11-01T11:51:52.815Z,17.04
2022-11-01T11:53:53.759Z,16.98
2022-11-01T11:55:54.915Z,17.01
2022-11-01T11:57:55.949Z,17.12
2022-11-01T11:59:57.269Z,17.05
2022-11-01T12:01:58.733Z,17.13
2022-11-01T12:04:00.421Z,17.31
2022-11-01T12:06:01.797Z,17.5
2022-11-01T12:08:03.292Z,17.48
2022-11-01T12:10:04.751Z,17.47
2022-11-01T12:12:06.239Z,17.36
2022-11-01T12:14:07.734Z,17.18
2022-11-01T12:16:09.248Z,17.49
2022-11-01T12:18:12.855Z,17.63
2022-11-01T12:20:12.233Z,17.33
2022-11-01T12:22:13.843Z,17.42
2022-11-01T12:24:15.620Z,17.45
2022-11-01T12:26:16.843Z,17.37
2022-11-01T12:28:18.484Z,17.4
2022-11-01T12:30:19.297Z,17.43
2022-11-01T12:32:20.512Z,17.3
2022-11-01T12:34:21.394Z,17.06
2022-11-01T12:40:26.021Z,17.12
2022-11-01T12:42:26.919Z,17.27
2022-11-01T12:44:28.632Z,17.24
2022-11-01T12:46:30.297Z,17.23
2022-11-01T12:48:31.085Z,17.2
2022-11-01T12:50:32.508Z,17.34
2022-11-01T12:52:33.509Z,17.23
2022-11-01T12:54:35.070Z,17.46
2022-11-01T12:56:36.135Z,17.48
2022-11-01T12:58:37.466Z,17.42
2022-11-01T13:00:38.630Z,17.42
2022-11-01T13:02:39.658Z,17.53
2022-11-01T13:04:40.845Z,17.45
2022-11-01T13:06:42.641Z,17.8
2022-11-01T13:08:44.292Z,17.38
2022-11-01T13:10:45.215Z,17.72
2022-11-01T13:12:46.103Z,17.68
2022-11-01T13:14:47.295Z,17.69
2022-11-01T13:16:48.182Z,17.6
2022-11-01T13:20:36.896Z,17.92
2022-11-01T13:20:50.239Z,18.25
2022-11-01T13:22:51.567Z,18.04
2022-11-01T13:24:52.976Z,18.47
2022-11-01T13:26:53.788Z,18.28
2022-11-01T13:28:55.036Z,17.95
2022-11-01T13:32:56.886Z,17.44
2022-11-01T13:34:58.299Z,17.3
2022-11-01T13:36:59.578Z,17.18
2022-11-01T13:39:00.799Z,17.29
2022-11-01T13:41:02.441Z,17.49
2022-11-01T13:43:04.523Z,17.26
2022-11-01T13:45:05.483Z,17.12
2022-11-01T13:47:06.740Z,17.26
2022-11-01T13:49:08.310Z,17.14
2022-11-01T13:51:09.920Z,17.26
2022-11-01T13:53:10.966Z,17
2022-11-01T13:55:12.181Z,17.23
2022-11-01T13:57:13.643Z,17.06
2022-11-01T13:59:14.798Z,17.19
2022-11-01T14:01:15.724Z,17.06
2022-11-01T14:03:17.182Z,17.4
2022-11-01T14:05:18.152Z,17.4
2022-11-01T14:07:19.614Z,17.36
2022-11-01T14:09:21.045Z,17.24
2022-11-01T14:11:22.436Z,17.18
2022-11-01T14:13:23.598Z,17.06
2022-11-01T14:15:25.187Z,17.08
2022-11-01T14:17:26.558Z,17.06
2022-11-01T14:19:27.590Z,17.27
2022-11-01T14:21:29.000Z,17.32
2022-11-01T14:23:30.390Z,17.38
2022-11-01T14:25:31.883Z,17.14
2022-11-01T14:27:32.828Z,17.08
2022-11-01T14:29:34.414Z,16.97
2022-11-01T14:31:35.544Z,16.82
2022-11-01T14:33:37.079Z,16.97
2022-11-01T14:35:38.504Z,16.89
2022-11-01T14:37:40.349Z,17.03
2022-11-01T14:39:42.111Z,16.85
2022-11-01T14:41:43.484Z,16.87
2022-11-01T14:43:44.730Z,16.77
2022-11-01T14:47:47.865Z,17.04
2022-11-01T14:49:48.846Z,16.78
2022-11-01T14:51:50.573Z,16.83
2022-11-01T14:53:52.306Z,16.78
2022-11-01T14:55:53.552Z,16.73
2022-11-01T14:57:54.475Z,16.7
2022-11-01T14:59:55.654Z,16.87
2022-11-01T15:02:02.289Z,16.81
2022-11-01T15:03:58.231Z,16.46
2022-11-01T15:05:59.139Z,16.3
2022-11-01T15:08:00.758Z,16.18
2022-11-01T15:10:02.209Z,16.08
2022-11-01T15:12:03.889Z,15.95
2022-11-01T15:14:04.940Z,15.82
2022-11-01T15:16:06.611Z,15.83
2022-11-01T15:18:08.252Z,15.8
2022-11-01T15:20:09.336Z,15.78
2022-11-01T15:22:10.857Z,15.76
2022-11-01T15:24:12.127Z,15.72
2022-11-01T15:26:13.207Z,15.74
2022-11-01T15:28:14.509Z,15.65
2022-11-01T15:30:15.674Z,15.62
2022-11-01T15:32:17.251Z,15.52
2022-11-01T15:34:18.303Z,15.48
2022-11-01T15:36:20.009Z,15.34
2022-11-01T15:38:21.563Z,15.34
2022-11-01T15:40:23.397Z,15.31
2022-11-01T15:42:24.600Z,15.23
2022-11-01T15:44:25.915Z,15.19
2022-11-01T15:46:26.954Z,15.13
2022-11-01T15:48:28.143Z,15.06
2022-11-01T15:50:29.427Z,15.02
2022-11-01T15:52:30.384Z,14.96
2022-11-01T15:54:32.111Z,14.89
2022-11-01T15:56:32.235Z,14.83
2022-11-01T15:58:33.709Z,14.8
2022-11-01T16:00:35.568Z,14.7
2022-11-01T16:02:37.263Z,14.57
2022-11-01T16:04:38.916Z,14.46
2022-11-01T16:06:40.459Z,14.34
2022-11-01T16:08:42.276Z,14.4
2022-11-01T16:10:43.171Z,14.31
2022-11-01T16:12:44.671Z,14.33
2022-11-01T16:14:45.620Z,14.29
2022-11-01T16:16:47.125Z,14.14
2022-11-01T16:18:48.289Z,14.05
2022-11-01T16:20:50.110Z,13.9
2022-11-01T16:22:51.499Z,13.92
2022-11-01T16:24:52.981Z,13.91
2022-11-01T16:28:55.265Z,14.01
2022-11-01T16:30:56.655Z,14.03
2022-11-01T16:32:57.949Z,14.11
2022-11-01T16:34:59.875Z,14.05
2022-11-01T16:37:01.571Z,14.08
2022-11-01T16:39:03.191Z,14.03
2022-11-01T16:41:04.741Z,13.99
2022-11-01T16:43:06.473Z,13.93
2022-11-01T16:45:07.355Z,13.8
2022-11-01T16:47:09.143Z,13.76
2022-11-01T16:49:10.345Z,13.76
2022-11-01T16:51:11.915Z,13.62
2022-11-01T16:53:57.286Z,13.57
2022-11-01T16:56:05.913Z,13.52
2022-11-01T16:57:59.890Z,12.95
2022-11-01T17:00:00.969Z,12.73
2022-11-01T17:02:02.570Z,12.74
2022-11-01T17:04:03.780Z,12.76
2022-11-01T17:06:04.785Z,12.71
2022-11-01T17:08:06.647Z,12.74
2022-11-01T17:10:07.647Z,12.65
2022-11-01T17:12:08.855Z,12.51
2022-11-01T17:14:10.646Z,12.56
2022-11-01T17:16:12.487Z,12.54
2022-11-01T17:18:13.875Z,12.39
2022-11-01T17:20:15.011Z,12.33
2022-11-01T17:22:16.835Z,12.39
2022-11-01T17:24:18.287Z,12.41
2022-11-01T17:26:19.335Z,12.43
2022-11-01T17:28:20.585Z,12.45
2022-11-01T17:30:21.900Z,12.44
2022-11-01T17:32:23.545Z,12.42
2022-11-01T17:34:24.823Z,12.36
2022-11-01T17:36:25.704Z,12.22
2022-11-01T17:38:29.997Z,12.05
2022-11-01T17:40:28.161Z,11.88
2022-11-01T17:42:29.126Z,11.82
2022-11-01T17:44:30.774Z,11.74
2022-11-01T17:46:32.564Z,11.64
2022-11-01T17:48:33.680Z,11.63
2022-11-01T17:50:35.454Z,11.71
2022-11-01T17:52:37.155Z,11.66
2022-11-01T17:54:38.972Z,11.54
2022-11-01T17:56:40.016Z,11.43
2022-11-01T17:58:41.719Z,11.39
2022-11-01T18:00:42.695Z,11.46
2022-11-01T18:02:43.739Z,11.52
2022-11-01T18:04:45.607Z,11.31
2022-11-01T18:06:47.469Z,11.33
2022-11-01T18:08:49.293Z,11.4
2022-11-01T18:10:51.149Z,11.35
2022-11-01T18:12:52.622Z,11.2
2022-11-01T18:14:54.072Z,11.1
2022-11-01T18:16:55.174Z,10.93
2022-11-01T18:18:56.624Z,10.91
2022-11-01T18:20:58.289Z,10.85
2022-11-01T18:22:59.348Z,10.86
2022-11-01T18:25:00.455Z,10.93
2022-11-01T18:27:02.038Z,10.83
2022-11-01T18:29:03.597Z,10.74
2022-11-01T18:31:05.307Z,10.56
2022-11-01T18:33:06.898Z,10.47
2022-11-01T18:35:08.799Z,10.41
2022-11-01T18:37:10.460Z,10.37
2022-11-01T18:39:11.834Z,10.42
2022-11-01T18:41:13.407Z,10.43
2022-11-01T18:43:13.886Z,10.42
2022-11-01T18:45:15.531Z,10.32
2022-11-01T18:47:16.934Z,10.19
2022-11-01T18:49:18.683Z,10.22
2022-11-01T18:51:20.642Z,10.14
2022-11-01T18:53:22.553Z,10.15
2022-11-01T18:55:23.734Z,10.11
2022-11-01T18:57:24.809Z,10.14
2022-11-01T18:59:25.832Z,10.25
2022-11-01T19:01:27.725Z,10.23
2022-11-01T19:03:28.672Z,10.08
2022-11-01T19:05:30.379Z,10.04
2022-11-01T19:07:44.733Z,9.88
2022-11-01T19:09:33.023Z,9.8
2022-11-01T19:11:34.464Z,9.68
2022-11-01T19:13:35.570Z,9.69
2022-11-01T19:15:36.801Z,9.7
2022-11-01T19:17:38.051Z,9.54
2022-11-01T19:19:39.133Z,9.5
2022-11-01T19:21:40.148Z,9.54
2022-11-01T19:23:41.338Z,9.52
2022-11-01T19:25:42.606Z,9.49
2022-11-01T19:27:43.850Z,9.26
2022-11-01T19:29:44.825Z,9.21
2022-11-01T19:31:46.197Z,9.3
2022-11-01T19:33:47.910Z,9.35
2022-11-01T19:35:49.221Z,9.21
2022-11-01T19:37:50.829Z,9.15
2022-11-01T19:39:52.337Z,9.23
2022-11-01T19:41:54.051Z,9.11
2022-11-01T19:43:55.318Z,9.07
2022-11-01T19:45:56.885Z,8.98
2022-11-01T19:47:58.137Z,8.9
2022-11-01T19:49:59.244Z,8.93
2022-11-01T19:52:00.562Z,8.83
2022-11-01T19:54:01.683Z,8.77
2022-11-01T19:56:03.049Z,8.79
2022-11-01T19:58:04.418Z,8.79
2022-11-01T20:00:05.941Z,8.66
2022-11-01T20:02:10.129Z,8.71
2022-11-01T20:04:08.270Z,8.82
2022-11-01T20:06:09.613Z,8.8
2022-11-01T20:08:10.998Z,8.79
2022-11-01T20:10:12.802Z,8.66
2022-11-01T20:12:15.494Z,8.57
2022-11-01T20:14:15.738Z,8.43
2022-11-01T20:16:17.133Z,8.33
2022-11-01T20:18:18.702Z,8.22
2022-11-01T20:20:20.105Z,8.24
2022-11-01T20:22:21.408Z,8.3
2022-11-01T20:24:23.202Z,8.33
2022-11-01T20:26:24.448Z,8.18
2022-11-01T20:28:25.555Z,8.03
2022-11-01T20:30:26.861Z,8.1
2022-11-01T20:32:28.616Z,7.91
2022-11-01T20:34:30.441Z,8.01
2022-11-01T20:36:31.946Z,8.13
2022-11-01T20:38:33.714Z,8.17
2022-11-01T20:40:35.160Z,8.14
2022-11-01T20:42:37.026Z,8.13
2022-11-01T20:44:38.565Z,8.05
2022-11-01T20:46:39.704Z,8
2022-11-01T20:48:41.541Z,8.02
2022-11-01T20:50:42.947Z,7.98
2022-11-01T20:52:44.563Z,7.85
2022-11-01T20:54:45.604Z,7.81
2022-11-01T20:56:46.572Z,7.74
2022-11-01T20:58:47.971Z,7.64
2022-11-01T21:00:49.548Z,7.76
2022-11-01T21:02:50.643Z,7.72
2022-11-01T21:04:52.312Z,7.76
2022-11-01T21:06:53.775Z,7.68
2022-11-01T21:10:56.703Z,7.37
2022-11-01T21:12:58.496Z,7.4
2022-11-01T21:14:59.659Z,7.34
2022-11-01T21:17:01.210Z,7.44
2022-11-01T21:19:02.878Z,7.65
2022-11-01T21:21:04.479Z,7.59
2022-11-01T21:23:05.857Z,7.47
2022-11-01T21:25:06.698Z,7.39
2022-11-01T21:27:07.911Z,7.43
2022-11-01T21:29:09.482Z,7.52
2022-11-01T21:31:10.768Z,7.61
2022-11-01T21:33:12.543Z,7.65
2022-11-01T21:35:14.135Z,7.61
2022-11-01T21:37:15.517Z,7.54
2022-11-01T21:39:16.611Z,7.63
2022-11-01T21:41:18.583Z,7.61
2022-11-01T21:43:20.154Z,7.71
2022-11-01T21:45:22.053Z,7.7
2022-11-01T21:47:23.828Z,7.86
2022-11-01T21:49:24.969Z,7.71
2022-11-01T21:51:26.206Z,7.48
2022-11-01T21:53:27.922Z,7.51
2022-11-01T21:55:29.338Z,7.43
2022-11-01T21:57:30.818Z,7.45
2022-11-01T21:59:32.098Z,7.58
2022-11-01T22:01:34.206Z,7.7
2022-11-01T22:03:35.611Z,7.75
2022-11-01T22:05:36.734Z,7.72
2022-11-01T22:07:38.051Z,7.75
2022-11-01T22:09:39.397Z,7.61
2022-11-01T22:11:41.094Z,7.53
2022-11-01T22:13:42.636Z,7.55
2022-11-01T22:15:44.163Z,7.33
2022-11-01T22:17:45.942Z,7.13
2022-11-01T22:19:47.731Z,7.33
2022-11-01T22:21:49.048Z,7.28
2022-11-01T22:23:50.244Z,7.27
2022-11-01T22:25:51.779Z,7.3
2022-11-01T22:27:53.004Z,7.3
2022-11-01T22:29:54.831Z,7.22
2022-11-01T22:31:56.689Z,7.11
2022-11-01T22:33:58.218Z,7.11
2022-11-01T22:35:59.261Z,7.24
2022-11-01T22:38:01.195Z,7.06
2022-11-01T22:40:02.364Z,6.99
2022-11-01T22:42:03.482Z,6.85
2022-11-01T22:44:04.688Z,6.81
2022-11-01T22:46:06.586Z,6.85
2022-11-01T22:48:08.358Z,6.8
2022-11-01T22:50:10.134Z,6.68
2022-11-01T22:52:11.572Z,6.6
2022-11-01T22:54:12.506Z,6.55
2022-11-01T22:56:14.086Z,6.54
2022-11-01T22:58:15.560Z,6.71
2022-11-01T23:02:18.821Z,6.76
2022-11-01T23:04:20.059Z,6.68
2022-11-01T23:06:21.594Z,6.73
2022-11-01T23:08:23.067Z,6.76
2022-11-01T23:10:24.706Z,6.82
2022-11-01T23:12:25.767Z,6.97
2022-11-01T23:14:26.727Z,6.81
2022-11-01T23:16:28.272Z,6.65
2022-11-01T23:18:29.503Z,6.46
2022-11-01T23:20:30.855Z,6.54
2022-11-01T23:22:32.486Z,6.49
2022-11-01T23:24:33.730Z,6.54
2022-11-01T23:26:35.049Z,6.69
2022-11-01T23:28:36.101Z,6.74
2022-11-01T23:30:38.047Z,6.57
2022-11-01T23:32:39.247Z,6.44
2022-11-01T23:34:40.466Z,6.33
2022-11-01T23:36:41.651Z,6.32
2022-11-01T23:39:26.539Z,6.38
2022-11-01T23:41:28.482Z,6.37
2022-11-01T23:43:29.954Z,6.23
2022-11-01T23:45:31.591Z,6.18
2022-11-01T23:47:32.684Z,6.09
2022-11-01T23:49:34.409Z,6.09
2022-11-01T23:51:35.537Z,6.08
2022-11-01T23:53:36.944Z,6.05
2022-11-01T23:55:38.655Z,5.9
2022-11-01T23:57:39.855Z,5.87
2022-11-01T23:59:41.071Z,6.01
